Startpagina
METAR-TAF:

METAR-TAF

Vliegvelden :

Aéroport de Paris-Le Bourget

Parijs, Frankrijk

breedte: 48-58N, lengte: 002-27E, hoogte: 66 m

Actueel weer

Dit bericht is 18 minuten geleden gemaakt, om 07:30 UTC
Wind 7 kt uit het westzuidwesten
Temperatuur 6°C
Vochtigheid 81%
Druk 1012 hPa
Zicht 10 km of meer
Gebroken wolken op 2000 ft
Gebroken wolken op 2700 ft

METAR: LFPB 290730Z AUTO 25007KT 9999 BKN020 BKN027 06/03 Q1012 NOSIG

Tijdstip: 08:48 (07:48 UTC)

Verwachting

Dit bericht is 2 uur en het 48 minuten geleden gemaakt, om 05:00 UTC
Verwachting geldig van 29 om 06 UTC tot 30 om 06 UTC
Wind 12 kt uit het westzuidwesten
Zicht 10 km of meer
geen wolken onder 1500 m en geen cumulonimbus
Wijzigt naar
van 30 om 02 UTC tot 30 om 04 UTC
Wind 8 kt uit het zuiden
Gebroken wolken op 1000 ft
Tijdelijke
van 30 om 03 UTC tot 30 om 06 UTC
Zicht: 2000 m
Gebroken wolken op 400 ft
lichte motregen, regen

TAF: LFPB 290500Z 2906/3006 25012KT CAVOK BECMG 3002/3004 18008KT BKN010 TEMPO 3003/3006 2000 -DZRA BKN004

Waarnemingen en weersverwachtingen van meer dan 4000 vliegvelden (METAR en TAF).

De beschikbare stations zijn de gele en rode punten op de kaart.

Ga met uw muis naar het station om de naam te zien.

Klik dan om waarnemingen en weersverwachtingen te zien.

kaart wijzigen: klik op de groene knoppen met een zwart kruis om in te zoomen, op de groene knop met een streepje om uit te zoomen of op de groene pijlen voor aangrenzende kaarten.


METAR-TAF: